Time;durP1;ratioP1;P1;durP2;ratioP2;P2;SDS_P1;SDS_P2;PMS_P1;PMS_P2;Temp;Humidity;BMP_temperature;BMP_pressure;BME280_temperature;BME280_humidity;BME280_pressure;Samples;Min_cycle;Max_cycle;Signal;HPM_P1;HPM_P2
2023/01/03 00:00:42;;;;;;;;;15.33;14.33;;;;;7.05;100.00;102245.44;5099119;28;45315;-80
2023/01/03 00:03:07;;;;;;;;;15.33;15.00;;;;;7.10;100.00;102245.09;5102413;28;45351;-80
2023/01/03 00:05:35;;;;;;;;;18.00;16.33;;;;;7.13;100.00;102249.28;5101351;28;46689;-80
2023/01/03 00:08:01;;;;;;;;;18.00;15.67;;;;;7.13;100.00;102254.59;5112833;27;45238;-80
2023/01/03 00:10:28;;;;;;;;;17.33;13.67;;;;;7.11;100.00;102259.97;5082740;28;45265;-81
2023/01/03 00:12:54;;;;;;;;;14.33;14.33;;;;;7.04;100.00;102232.31;5100776;28;45516;-80
2023/01/03 00:15:19;;;;;;;;;14.00;13.33;;;;;7.09;100.00;102248.66;5082265;28;48264;-80
2023/01/03 00:17:44;;;;;;;;;20.00;17.33;;;;;7.09;100.00;102259.25;5081581;28;45726;-80
2023/01/03 00:20:10;;;;;;;;;14.00;14.00;;;;;7.03;100.00;102235.91;5100632;28;45334;-80
2023/01/03 00:22:36;;;;;;;;;17.67;14.67;;;;;6.97;100.00;102237.19;5081688;28;47407;-80
2023/01/03 00:25:02;;;;;;;;;16.33;15.00;;;;;7.09;100.00;102255.78;5081469;28;48196;-80
2023/01/03 00:27:28;;;;;;;;;12.67;12.67;;;;;7.07;100.00;102253.25;5099618;28;45326;-81
2023/01/03 00:29:54;;;;;;;;;14.67;13.33;;;;;7.05;100.00;102234.84;5100040;28;45237;-81
2023/01/03 00:32:19;;;;;;;;;16.00;14.33;;;;;7.09;100.00;102240.72;5079771;28;46120;-80
2023/01/03 00:34:45;;;;;;;;;16.67;16.67;;;;;7.17;100.00;102254.25;5079606;28;46991;-80
2023/01/03 00:37:12;;;;;;;;;16.33;16.33;;;;;7.20;100.00;102264.59;5099004;28;45260;-80
2023/01/03 00:39:37;;;;;;;;;16.00;16.00;;;;;7.22;100.00;102267.13;5078468;28;45212;-80
2023/01/03 00:42:03;;;;;;;;;20.33;18.67;;;;;7.26;100.00;102271.22;5098207;28;46070;-80
2023/01/03 00:44:29;;;;;;;;;15.67;15.67;;;;;7.29;100.00;102264.84;5098185;28;45314;-80
2023/01/03 00:46:54;;;;;;;;;19.00;17.33;;;;;7.28;100.00;102252.59;5084314;28;45342;-80
2023/01/03 00:49:19;;;;;;;;;17.33;15.33;;;;;7.38;100.00;102263.31;5078995;28;45399;-80
2023/01/03 00:51:45;;;;;;;;;14.00;14.00;;;;;7.38;100.00;102265.97;5097520;28;45352;-80
2023/01/03 00:54:12;;;;;;;;;15.00;14.33;;;;;7.39;100.00;102263.19;5077819;28;46403;-80
2023/01/03 00:56:42;;;;;;;;;13.00;13.00;;;;;7.40;100.00;102253.47;5096183;28;45278;-80
2023/01/03 00:59:08;;;;;;;;;13.67;13.67;;;;;7.38;100.00;102252.72;5096638;28;45347;-80
2023/01/03 01:01:47;;;;;;;;;13.67;13.67;;;;;7.38;100.00;102260.66;5077146;28;45364;-80
2023/01/03 01:04:33;;;;;;;;;14.00;14.00;;;;;7.38;100.00;102255.38;5096369;28;46204;-80
2023/01/03 01:07:02;;;;;;;;;13.67;12.67;;;;;7.30;100.00;102245.38;5107111;27;45280;-80
2023/01/03 01:09:31;;;;;;;;;16.67;16.00;;;;;7.40;100.00;102258.75;5078058;28;45208;-80
2023/01/03 01:11:56;;;;;;;;;18.33;15.33;;;;;7.31;100.00;102241.78;5086847;28;45395;-81
2023/01/03 01:14:24;;;;;;;;;15.33;13.67;;;;;7.35;100.00;102251.16;5086565;28;45619;-81
2023/01/03 01:16:58;;;;;;;;;13.67;13.67;;;;;7.33;100.00;102242.50;5083851;28;45308;-80
2023/01/03 01:19:36;;;;;;;;;11.33;11.33;;;;;7.44;100.00;102266.34;5080320;28;45327;-81
2023/01/03 01:22:03;;;;;;;;;14.67;13.67;;;;;7.30;100.00;102243.56;5065978;28;47288;-80
2023/01/03 01:24:28;;;;;;;;;16.67;16.33;;;;;7.44;100.00;102258.41;5076985;28;47195;-81
2023/01/03 01:26:54;;;;;;;;;14.67;14.00;;;;;7.39;100.00;102255.25;5094056;28;45354;-80
2023/01/03 01:29:19;;;;;;;;;13.67;13.00;;;;;7.49;100.00;102266.00;5094931;28;45493;-80
2023/01/03 01:31:46;;;;;;;;;13.00;13.00;;;;;7.51;100.00;102269.38;5073517;28;47474;-80
2023/01/03 01:34:12;;;;;;;;;12.67;12.67;;;;;7.50;100.00;102275.63;5092865;28;45523;-80
2023/01/03 01:36:40;;;;;;;;;16.00;16.00;;;;;7.51;100.00;102265.91;5072874;28;45798;-79
2023/01/03 01:39:13;;;;;;;;;17.00;16.67;;;;;7.51;100.00;102266.72;5073595;28;45408;-80
2023/01/03 01:44:56;;;;;;;;;14.67;14.67;;;;;7.65;100.00;102276.28;5090877;28;45793;-80
2023/01/03 01:47:47;;;;;;;;;17.33;15.33;;;;;7.68;100.00;102280.47;5081867;28;45284;-79
2023/01/03 01:50:18;;;;;;;;;13.00;13.00;;;;;7.69;100.00;102280.34;5072332;28;45445;-79
2023/01/03 01:52:58;;;;;;;;;11.67;11.67;;;;;7.58;100.00;102259.19;5086101;28;46595;-79
2023/01/03 01:55:29;;;;;;;;;12.33;11.67;;;;;7.60;100.00;102270.47;5071468;28;48031;-79
2023/01/03 01:57:54;;;;;;;;;11.67;11.67;;;;;7.61;100.00;102274.81;5071551;28;45380;-79
2023/01/03 02:00:20;;;;;;;;;15.00;12.00;;;;;7.63;100.00;102278.19;5089918;28;45276;-79
2023/01/03 02:02:48;;;;;;;;;14.00;14.00;;;;;7.60;100.00;102285.53;5089270;28;45461;-79
2023/01/03 02:05:16;;;;;;;;;13.00;11.67;;;;;7.57;100.00;102278.63;5077483;28;47712;-79
2023/01/03 02:07:43;;;;;;;;;12.00;11.00;;;;;7.54;100.00;102281.53;5069721;28;46103;-79
2023/01/03 02:10:09;;;;;;;;;14.67;12.00;;;;;7.43;100.00;102282.34;5089308;28;45395;-79
2023/01/03 02:15:51;;;;;;;;;13.67;13.67;;;;;7.43;100.00;102290.28;5089034;28;45594;-80
2023/01/03 02:18:45;;;;;;;;;14.00;14.00;;;;;7.42;100.00;102297.38;5059990;28;45321;-80
2023/01/03 02:21:29;;;;;;;;;13.00;13.00;;;;;7.41;100.00;102298.34;5089315;28;45337;-80
2023/01/03 02:24:15;;;;;;;;;13.33;13.00;;;;;7.28;100.00;102290.44;5067087;28;46462;-80
2023/01/03 02:27:04;;;;;;;;;13.67;13.67;;;;;7.32;100.00;102294.56;5087235;28;45386;-80
2023/01/03 02:29:41;;;;;;;;;13.00;13.00;;;;;7.26;100.00;102291.53;5064789;28;45529;-79
2023/01/03 02:32:25;;;;;;;;;14.67;14.00;;;;;7.19;100.00;102278.75;5068363;28;45475;-79
2023/01/03 02:35:02;;;;;;;;;14.00;13.00;;;;;7.16;100.00;102300.13;5081197;28;46231;-79
2023/01/03 02:37:38;;;;;;;;;10.33;10.33;;;;;6.99;100.00;102277.59;5075602;28;45599;-79
2023/01/03 02:40:19;;;;;;;;;12.67;12.67;;;;;7.08;100.00;102289.28;5086893;28;45515;-79
2023/01/03 02:43:04;;;;;;;;;13.33;12.00;;;;;7.04;100.00;102285.19;5067248;28;45451;-79
2023/01/03 02:46:12;;;;;;;;;11.67;11.67;;;;;7.05;100.00;102289.50;5087480;28;45294;-79
2023/01/03 02:48:50;;;;;;;;;11.00;10.00;;;;;7.01;100.00;102286.28;5058048;28;47423;-79
2023/01/03 02:51:31;;;;;;;;;11.67;11.67;;;;;6.99;100.00;102289.97;5087835;28;45294;-79
2023/01/03 02:53:58;;;;;;;;;14.00;14.00;;;;;6.89;100.00;102276.59;5087382;28;45217;-79
2023/01/03 02:56:29;;;;;;;;;10.33;10.00;;;;;6.89;100.00;102292.44;5085017;28;47598;-80
2023/01/03 02:59:00;;;;;;;;;14.67;14.00;;;;;6.91;100.00;102286.09;5087809;28;48418;-79
2023/01/03 03:01:28;;;;;;;;;15.00;15.00;;;;;6.93;100.00;102300.03;5088000;27;46121;-80
2023/01/03 03:03:53;;;;;;;;;14.00;14.00;;;;;6.91;100.00;102303.72;5092230;28;44674;-79
2023/01/03 03:06:43;;;;;;;;;14.00;14.00;;;;;6.90;100.00;102302.91;5089430;27;46224;-79
2023/01/03 03:09:08;;;;;;;;;7.67;7.00;;;;;6.74;100.00;102289.09;5088560;28;47394;-79
2023/01/03 03:14:28;;;;;;;;;13.33;11.67;;;;;6.82;100.00;102298.16;5104968;28;45349;-79
2023/01/03 03:16:59;;;;;;;;;14.33;13.00;;;;;6.79;100.00;102297.53;5100886;28;45462;-79
2023/01/03 03:25:26;;;;;;;;;12.67;12.67;;;;;6.74;100.00;102303.19;5102858;28;46527;-79
2023/01/03 03:30:42;;;;;;;;;13.00;11.33;;;;;6.57;100.00;102267.38;5101214;28;45567;-80
2023/01/03 03:33:11;;;;;;;;;13.33;11.33;;;;;6.81;100.00;102296.50;5078996;28;45427;-79
2023/01/03 03:36:09;;;;;;;;;13.33;11.67;;;;;6.87;100.00;102286.41;5091478;28;45306;-81
2023/01/03 03:38:39;;;;;;;;;14.67;12.00;;;;;6.82;100.00;102277.03;5067418;28;45512;-79
2023/01/03 03:47:12;;;;;;;;;13.67;12.00;;;;;6.98;100.00;102281.19;5101743;28;45429;-80
2023/01/03 03:49:43;;;;;;;;;10.67;10.67;;;;;7.03;100.00;102278.19;5081306;28;46160;-80
2023/01/03 03:52:14;;;;;;;;;9.00;9.00;;;;;7.05;100.00;102286.88;5082269;28;47297;-79
2023/01/03 03:54:45;;;;;;;;;10.33;10.33;;;;;7.18;100.00;102306.16;5099936;28;45671;-79
2023/01/03 03:57:18;;;;;;;;;10.67;10.67;;;;;7.20;100.00;102295.47;5081498;28;45431;-79
2023/01/03 03:59:50;;;;;;;;;14.67;11.00;;;;;7.23;100.00;102282.03;5099173;28;45518;-79
2023/01/03 04:02:17;;;;;;;;;13.67;13.33;;;;;7.33;100.00;102295.41;5080125;28;46975;-79
2023/01/03 04:04:47;;;;;;;;;14.33;11.67;;;;;7.40;100.00;102299.28;5099078;28;45465;-79
2023/01/03 04:07:12;;;;;;;;;11.00;11.00;;;;;7.39;100.00;102291.47;5110497;27;45352;-79
2023/01/03 04:09:38;;;;;;;;;11.00;10.33;;;;;7.47;100.00;102288.22;5090652;27;45363;-79
2023/01/03 04:12:03;;;;;;;;;12.67;11.33;;;;;7.57;100.00;102295.38;5091744;28;45392;-79
2023/01/03 04:14:29;;;;;;;;;9.00;9.00;;;;;7.61;100.00;102293.34;5079217;28;46007;-79
2023/01/03 04:16:54;;;;;;;;;11.00;11.00;;;;;7.68;100.00;102299.00;5098281;28;45138;-79
2023/01/03 04:19:19;;;;;;;;;11.00;11.00;;;;;7.73;100.00;102301.31;5079446;28;46532;-79
2023/01/03 04:21:45;;;;;;;;;10.67;10.00;;;;;7.77;100.00;102297.44;5078436;28;45982;-79
2023/01/03 04:24:10;;;;;;;;;13.67;12.00;;;;;7.79;100.00;102300.84;5097415;28;45378;-79
2023/01/03 04:26:35;;;;;;;;;13.00;12.00;;;;;7.77;100.00;102290.38;5073801;28;45280;-79
2023/01/03 04:29:01;;;;;;;;;11.33;10.33;;;;;7.84;100.00;102298.66;5075061;28;47129;-79
2023/01/03 04:31:26;;;;;;;;;15.00;14.00;;;;;7.78;100.00;102293.88;5095465;27;45267;-79
2023/01/03 04:33:52;;;;;;;;;12.00;10.67;;;;;7.63;100.00;102272.06;5076365;28;45891;-79
2023/01/03 04:36:18;;;;;;;;;12.67;10.67;;;;;7.70;100.00;102292.63;5094658;28;45555;-78
2023/01/03 04:38:44;;;;;;;;;14.00;12.00;;;;;7.69;100.00;102288.31;5075343;28;45926;-79
2023/01/03 04:41:09;;;;;;;;;11.00;11.00;;;;;7.82;100.00;102313.84;5064404;28;47189;-79
2023/01/03 04:46:19;;;;;;;;;11.67;10.00;;;;;7.91;100.00;102309.66;5086965;28;45353;-79
2023/01/03 04:48:44;;;;;;;;;9.67;9.00;;;;;7.93;100.00;102305.91;5093657;28;45616;-79
2023/01/03 04:51:10;;;;;;;;;12.67;11.33;;;;;7.98;100.00;102304.69;5075747;28;48384;-78
2023/01/03 04:53:35;;;;;;;;;10.00;10.00;;;;;7.97;100.00;102303.88;5092964;28;45536;-79
2023/01/03 04:56:01;;;;;;;;;12.00;11.00;;;;;8.12;100.00;102311.59;5093673;28;45397;-78
2023/01/03 04:58:26;;;;;;;;;15.33;12.33;;;;;8.16;100.00;102327.13;5074867;28;47148;-79
2023/01/03 05:00:57;;;;;;;;;13.00;12.00;;;;;8.24;100.00;102329.19;5093179;28;45379;-79
2023/01/03 05:03:22;;;;;;;;;9.00;8.33;;;;;8.28;100.00;102324.47;5093633;28;45442;-79
2023/01/03 05:05:48;;;;;;;;;13.33;13.33;;;;;8.28;100.00;102319.19;5073439;28;45672;-79
2023/01/03 05:08:13;;;;;;;;;6.67;6.67;;;;;8.24;100.00;102310.66;5092788;28;45372;-79
2023/01/03 05:10:40;;;;;;;;;12.00;12.00;;;;;8.24;100.00;102309.78;5089142;28;45378;-79
2023/01/03 05:13:05;;;;;;;;;13.00;9.67;;;;;8.30;100.00;102322.56;5070243;28;45385;-79
2023/01/03 05:15:34;;;;;;;;;12.33;12.33;;;;;8.38;100.00;102328.09;5066450;28;45363;-79
2023/01/03 05:17:59;;;;;;;;;13.00;11.00;;;;;8.36;100.00;102332.69;5086837;28;45512;-79
2023/01/03 05:26:01;;;;;;;;;11.67;10.00;;;;;8.40;100.00;102341.22;5072113;28;45423;-79
2023/01/03 05:28:27;;;;;;;;;13.00;11.00;;;;;8.27;100.00;102320.16;5069611;28;45957;-79
2023/01/03 05:30:52;;;;;;;;;11.33;11.33;;;;;8.37;100.00;102342.31;5068939;28;46257;-79
2023/01/03 05:33:17;;;;;;;;;15.00;13.33;;;;;8.39;100.00;102340.38;5090097;28;45513;-79
2023/01/03 05:35:46;;;;;;;;;11.33;11.33;;;;;8.39;100.00;102337.75;5088740;28;45437;-79
2023/01/03 05:38:12;;;;;;;;;10.00;10.00;;;;;8.50;100.00;102354.59;5068699;28;47221;-79
2023/01/03 05:40:37;;;;;;;;;14.33;13.00;;;;;8.45;100.00;102353.13;5064701;28;47395;-79
2023/01/03 05:43:03;;;;;;;;;12.67;12.67;;;;;8.43;100.00;102356.88;5084675;28;45298;-79
2023/01/03 05:45:28;;;;;;;;;15.33;13.67;;;;;8.40;100.00;102351.81;5065754;28;45688;-79
2023/01/03 05:47:57;;;;;;;;;16.00;14.00;;;;;8.40;100.00;102350.03;5066749;28;45637;-79
2023/01/03 05:50:22;;;;;;;;;15.00;12.33;;;;;8.43;100.00;102365.69;5065381;28;47457;-79
2023/01/03 05:52:48;;;;;;;;;16.00;16.00;;;;;8.35;100.00;102352.16;5084094;28;45439;-79
2023/01/03 05:55:14;;;;;;;;;15.67;13.00;;;;;8.43;100.00;102357.72;5085446;28;45446;-79
2023/01/03 05:57:39;;;;;;;;;13.00;13.00;;;;;8.46;100.00;102354.00;5072906;28;45411;-79
2023/01/03 06:00:05;;;;;;;;;13.67;12.67;;;;;8.42;100.00;102342.81;5085157;28;46197;-79
2023/01/03 06:02:30;;;;;;;;;15.33;14.00;;;;;8.50;100.00;102368.69;5087935;28;45479;-79
2023/01/03 06:04:56;;;;;;;;;13.00;13.00;;;;;8.51;100.00;102356.28;5067672;28;45390;-79
2023/01/03 06:07:21;;;;;;;;;17.67;16.33;;;;;8.52;100.00;102353.50;5100952;27;45366;-79
2023/01/03 06:09:46;;;;;;;;;16.33;14.67;;;;;8.53;100.00;102354.38;5066374;28;47873;-79
2023/01/03 06:12:12;;;;;;;;;14.67;14.00;;;;;8.49;100.00;102353.75;5072235;28;45193;-79
2023/01/03 06:14:37;;;;;;;;;15.00;15.00;;;;;8.56;100.00;102347.03;5052005;28;45310;-79
2023/01/03 06:19:46;;;;;;;;;13.00;11.33;;;;;8.55;100.00;102355.09;5085432;28;45598;-79
2023/01/03 06:22:12;;;;;;;;;22.00;15.33;;;;;8.58;100.00;102365.47;5086113;28;45398;-79
2023/01/03 06:24:37;;;;;;;;;15.33;15.33;;;;;8.55;100.00;102361.25;5085325;28;45481;-79
2023/01/03 06:27:02;;;;;;;;;14.33;14.33;;;;;8.57;100.00;102367.28;5075189;28;46843;-81
2023/01/03 06:29:28;;;;;;;;;14.67;12.67;;;;;8.60;100.00;102371.50;5083014;28;45290;-80
2023/01/03 06:31:53;;;;;;;;;18.00;15.00;;;;;8.58;100.00;102373.41;5097309;28;44803;-81
2023/01/03 06:34:18;;;;;;;;;17.00;15.67;;;;;8.62;100.00;102376.69;5078040;28;45403;-80
2023/01/03 06:36:44;;;;;;;;;21.00;18.33;;;;;8.61;100.00;102386.44;5067751;28;47360;-80
2023/01/03 06:39:09;;;;;;;;;16.00;16.00;;;;;8.59;100.00;102369.78;5080936;28;46359;-80
2023/01/03 06:41:34;;;;;;;;;15.67;15.67;;;;;8.65;100.00;102374.59;5073980;28;45319;-80
2023/01/03 06:44:00;;;;;;;;;17.33;14.00;;;;;8.70;100.00;102388.34;5084213;28;45337;-80
2023/01/03 06:54:44;;;;;;;;;18.00;17.00;;;;;8.61;100.00;102380.28;5091168;28;45275;-79
2023/01/03 06:57:10;;;;;;;;;18.00;18.00;;;;;8.69;100.00;102399.94;5068163;28;46151;-79
2023/01/03 06:59:36;;;;;;;;;17.67;17.67;;;;;8.61;100.00;102391.72;5080996;28;48410;-79
2023/01/03 07:02:04;;;;;;;;;15.00;14.33;;;;;8.68;100.00;102408.81;5078745;28;45259;-79
2023/01/03 07:04:29;;;;;;;;;16.00;15.00;;;;;8.70;100.00;102411.34;5075360;28;45351;-79
2023/01/03 07:06:54;;;;;;;;;19.33;18.67;;;;;8.62;100.00;102389.94;5098739;27;45616;-82
2023/01/03 07:09:20;;;;;;;;;19.00;17.33;;;;;8.44;100.00;102367.34;5065104;28;47476;-80
2023/01/03 07:11:45;;;;;;;;;15.33;15.00;;;;;8.64;100.00;102398.59;5081182;28;45382;-80
2023/01/03 07:14:11;;;;;;;;;20.00;15.33;;;;;8.73;100.00;102407.63;5083048;28;45445;-80
2023/01/03 07:16:42;;;;;;;;;16.33;14.67;;;;;8.71;100.00;102407.78;5074050;28;46101;-81
2023/01/03 07:19:11;;;;;;;;;18.33;17.67;;;;;8.75;100.00;102413.66;5073866;28;47827;-78
2023/01/03 07:21:37;;;;;;;;;18.33;16.67;;;;;8.70;100.00;102411.34;5092244;28;45280;-79
2023/01/03 07:24:04;;;;;;;;;19.00;15.33;;;;;8.63;100.00;102396.91;5062258;28;45414;-79
2023/01/03 07:26:32;;;;;;;;;16.00;16.00;;;;;8.68;100.00;102411.47;5079926;28;46340;-79
2023/01/03 07:28:58;;;;;;;;;17.67;16.67;;;;;8.68;100.00;102418.59;5079924;28;45417;-79
2023/01/03 07:31:24;;;;;;;;;17.00;17.00;;;;;8.71;100.00;102418.38;5058197;28;45858;-79
2023/01/03 07:33:49;;;;;;;;;17.00;16.33;;;;;8.69;100.00;102422.94;5062090;28;45309;-80
2023/01/03 07:36:15;;;;;;;;;14.00;14.00;;;;;8.75;100.00;102432.22;5074847;27;45504;-83
2023/01/03 07:38:43;;;;;;;;;21.33;19.00;;;;;8.80;100.00;102438.00;5063675;28;47243;-80
2023/01/03 07:41:09;;;;;;;;;23.00;22.00;;;;;8.69;100.00;102417.63;5066786;28;46058;-78
2023/01/03 07:43:36;;;;;;;;;18.00;17.00;;;;;8.84;100.00;102436.81;5093065;28;45303;-79
2023/01/03 07:46:06;;;;;;;;;17.67;16.00;;;;;8.85;100.00;102438.47;5073361;28;46146;-80
2023/01/03 07:48:31;;;;;;;;;20.33;17.33;;;;;8.81;100.00;102432.59;5092784;28;45466;-79
2023/01/03 07:50:57;;;;;;;;;19.00;17.00;;;;;8.79;100.00;102423.91;5081266;28;45276;-80
2023/01/03 07:53:23;;;;;;;;;24.33;21.33;;;;;8.78;100.00;102421.38;5079479;28;45449;-80
2023/01/03 07:55:48;;;;;;;;;20.67;17.00;;;;;8.84;100.00;102439.44;5089440;28;45422;-76
2023/01/03 07:58:13;;;;;;;;;20.67;17.67;;;;;8.90;100.00;102438.13;5081997;28;46669;-75
2023/01/03 08:00:40;;;;;;;;;15.33;14.67;;;;;8.92;100.00;102438.84;5062542;28;45309;-77
2023/01/03 08:03:06;;;;;;;;;17.33;14.67;;;;;8.89;100.00;102437.25;5078010;27;45280;-76
2023/01/03 08:05:34;;;;;;;;;14.00;14.00;;;;;8.90;100.00;102448.72;5080714;28;45403;-76
2023/01/03 08:07:59;;;;;;;;;60.25;49.25;;;;;8.85;100.00;102441.13;5073008;27;46493;-77
2023/01/03 08:13:18;;;;;;;;;14.67;13.33;;;;;8.82;100.00;102441.38;5081296;28;45493;-74
2023/01/03 08:15:48;;;;;;;;;16.00;16.00;;;;;8.92;100.00;102462.72;5080547;28;45937;-75
2023/01/03 08:18:16;;;;;;;;;17.00;15.67;;;;;8.92;100.00;102462.72;5080877;28;45272;-75
2023/01/03 08:20:41;;;;;;;;;19.00;17.00;;;;;8.86;100.00;102461.38;5062816;28;45534;-74
2023/01/03 08:23:07;;;;;;;;;18.67;16.00;;;;;8.81;100.00;102461.75;5062348;28;45297;-75
2023/01/03 08:25:32;;;;;;;;;18.67;17.67;;;;;8.88;100.00;102475.34;5062665;28;46337;-75
2023/01/03 08:27:58;;;;;;;;;18.67;17.00;;;;;8.79;100.00;102468.13;5062726;28;47391;-74
2023/01/03 08:30:28;;;;;;;;;17.00;16.33;;;;;8.89;100.00;102484.16;5073216;28;45415;-74
2023/01/03 08:32:56;;;;;;;;;15.00;14.33;;;;;8.89;100.00;102482.34;5052233;28;45649;-75
2023/01/03 08:35:24;;;;;;;;;20.33;18.33;;;;;8.78;100.00;102455.84;5080394;28;45364;-74
2023/01/03 08:37:52;;;;;;;;;13.33;13.00;;;;;8.87;100.00;102481.63;5062200;28;45678;-74
2023/01/03 08:40:17;;;;;;;;;15.33;14.33;;;;;8.74;100.00;102454.41;5062116;28;45403;-74
2023/01/03 08:42:45;;;;;;;;;16.00;15.33;;;;;8.90;100.00;102477.91;5075988;28;45384;-75
2023/01/03 08:45:16;;;;;;;;;17.67;16.00;;;;;8.92;100.00;102482.09;5061028;28;45319;-75
2023/01/03 08:47:42;;;;;;;;;16.00;14.00;;;;;8.77;100.00;102462.09;5062415;28;45552;-75
2023/01/03 08:50:10;;;;;;;;;13.67;13.67;;;;;8.80;100.00;102467.19;5062214;28;45437;-74
2023/01/03 08:52:38;;;;;;;;;16.33;15.33;;;;;8.86;100.00;102471.16;5061860;28;45339;-75
2023/01/03 08:55:04;;;;;;;;;14.00;14.00;;;;;8.81;100.00;102472.38;5080813;28;45595;-74
2023/01/03 08:57:29;;;;;;;;;13.67;13.67;;;;;8.93;100.00;102482.97;5062795;28;47935;-74
2023/01/03 08:59:55;;;;;;;;;15.67;15.00;;;;;8.88;100.00;102477.16;5078876;28;45386;-74
2023/01/03 09:02:20;;;;;;;;;15.00;13.67;;;;;8.65;100.00;102443.53;5061923;28;45437;-75
2023/01/03 09:04:45;;;;;;;;;14.00;12.67;;;;;8.96;100.00;102491.53;5080001;28;45349;-74
2023/01/03 09:07:11;;;;;;;;;17.00;15.33;;;;;8.93;100.00;102475.84;5093375;27;45497;-74
2023/01/03 09:09:36;;;;;;;;;17.67;16.33;;;;;9.01;100.00;102490.31;5080856;27;45412;-75
2023/01/03 09:12:02;;;;;;;;;15.67;14.33;;;;;9.06;100.00;102494.28;5062990;28;45370;-75
2023/01/03 09:14:29;;;;;;;;;16.00;14.67;;;;;8.93;100.00;102478.50;5062175;28;46175;-75
2023/01/03 09:16:55;;;;;;;;;15.67;11.67;;;;;8.97;100.00;102479.09;5062524;28;46914;-74
2023/01/03 09:19:20;;;;;;;;;17.00;14.00;;;;;8.96;100.00;102480.06;5076001;28;45375;-75
2023/01/03 09:21:46;;;;;;;;;17.00;16.00;;;;;8.95;100.00;102465.97;5054047;28;45298;-75
2023/01/03 09:24:11;;;;;;;;;19.33;19.00;;;;;8.99;100.00;102471.88;5061143;28;46656;-74
2023/01/03 09:26:37;;;;;;;;;18.33;16.00;;;;;9.19;100.00;102495.97;5080259;28;46162;-75
2023/01/03 09:29:02;;;;;;;;;14.00;13.67;;;;;9.16;100.00;102491.75;5080538;28;45197;-75
2023/01/03 09:31:33;;;;;;;;;10.67;10.67;;;;;9.07;100.00;102477.41;5061756;28;45387;-75
2023/01/03 09:34:04;;;;;;;;;10.00;10.00;;;;;9.19;100.00;102495.97;5061620;28;45485;-75
2023/01/03 09:36:29;;;;;;;;;14.67;12.00;;;;;9.08;100.00;102473.81;5062205;28;47363;-75
2023/01/03 09:38:55;;;;;;;;;11.67;11.67;;;;;9.22;100.00;102491.25;5061830;28;45430;-74
2023/01/03 09:41:23;;;;;;;;;12.00;9.67;;;;;9.24;100.00;102493.78;5080722;28;45323;-74
2023/01/03 09:43:57;;;;;;;;;10.67;10.67;;;;;9.11;100.00;102471.84;5065575;28;45493;-75
2023/01/03 09:46:34;;;;;;;;;10.67;10.67;;;;;9.24;100.00;102491.13;5045606;28;45598;-75
2023/01/03 09:49:05;;;;;;;;;8.00;8.00;;;;;9.16;100.00;102475.00;5059341;27;45991;-76
2023/01/03 10:03:42;;;;;;;;;10.33;10.33;;;;;9.45;100.00;102472.66;5079395;28;45370;-74
2023/01/03 10:06:14;;;;;;;;;8.33;7.33;;;;;9.66;100.00;102497.56;5079876;27;45332;-75
2023/01/03 10:09:06;;;;;;;;;8.67;7.33;;;;;9.71;100.00;102496.25;5067361;27;45348;-75
2023/01/03 10:11:43;;;;;;;;;9.00;8.00;;;;;9.58;100.00;102480.47;5058475;27;45593;-75
2023/01/03 10:14:31;;;;;;;;;10.33;10.33;;;;;9.64;100.00;102478.28;5079398;28;45559;-75
2023/01/03 10:17:15;;;;;;;;;12.00;11.00;;;;;9.83;100.00;102504.16;5049695;28;45666;-74
2023/01/03 10:20:05;;;;;;;;;10.00;9.00;;;;;9.86;100.00;102495.94;5060778;28;47239;-75
2023/01/03 10:22:32;;;;;;;;;13.67;12.00;;;;;9.95;100.00;102502.31;5067178;27;46165;-74
2023/01/03 10:25:03;;;;;;;;;15.67;15.00;;;;;9.87;100.00;102483.53;5075840;28;45315;-75
2023/01/03 10:27:34;;;;;;;;;12.67;10.00;;;;;9.85;100.00;102489.78;5079297;28;45213;-75
2023/01/03 10:30:03;;;;;;;;;15.00;13.00;;;;;9.98;100.00;102508.22;5059306;28;45953;-74
2023/01/03 10:32:38;;;;;;;;;12.33;12.33;;;;;9.97;100.00;102522.47;5073627;27;45347;-75
2023/01/03 10:35:03;;;;;;;;;14.00;13.00;;;;;9.93;100.00;102509.56;5080413;27;45787;-74
2023/01/03 10:37:28;;;;;;;;;10.00;9.33;;;;;9.73;100.00;102480.19;5061054;28;46137;-74
2023/01/03 10:40:02;;;;;;;;;11.33;11.33;;;;;9.81;100.00;102503.44;5078080;28;46443;-74
2023/01/03 10:42:31;;;;;;;;;11.33;11.33;;;;;9.79;100.00;102508.06;5078571;28;45385;-74
2023/01/03 10:45:04;;;;;;;;;10.67;10.33;;;;;9.84;100.00;102527.94;5067731;28;45459;-74
2023/01/03 10:47:30;;;;;;;;;7.33;7.33;;;;;9.77;100.00;102523.25;5078323;28;45336;-75
2023/01/03 10:49:59;;;;;;;;;12.33;11.33;;;;;9.75;100.00;102515.41;5079324;28;46227;-74
2023/01/03 10:52:31;;;;;;;;;9.00;9.00;;;;;9.71;100.00;102506.00;5079002;28;45390;-74
2023/01/03 10:55:02;;;;;;;;;16.00;13.00;;;;;9.58;100.00;102492.91;5060792;28;45480;-74
2023/01/03 10:57:38;;;;;;;;;11.67;10.67;;;;;9.78;100.00;102522.28;5078384;28;45557;-74
2023/01/03 11:00:25;;;;;;;;;11.67;11.67;;;;;9.74;100.00;102513.75;5078924;28;47402;-73
2023/01/03 11:03:00;;;;;;;;;12.00;11.67;;;;;9.81;100.00;102522.03;5067354;28;45322;-74
2023/01/03 11:05:26;;;;;;;;;10.67;10.67;;;;;9.83;100.00;102498.84;5078954;28;45338;-74
2023/01/03 11:07:54;;;;;;;;;9.00;9.00;;;;;9.87;100.00;102505.59;5086608;27;45337;-75
2023/01/03 11:10:21;;;;;;;;;15.33;14.67;;;;;9.88;100.00;102502.00;5078231;28;46094;-74
2023/01/03 11:12:47;;;;;;;;;17.67;15.67;;;;;9.83;100.00;102497.06;5078575;28;45342;-74
2023/01/03 11:15:19;;;;;;;;;13.00;11.33;;;;;9.77;100.00;102484.28;5060844;28;45500;-74
2023/01/03 11:17:56;;;;;;;;;9.00;8.67;;;;;9.85;100.00;102491.63;5078902;28;45472;-74
2023/01/03 11:21:07;;;;;;;;;12.33;12.33;;;;;9.83;100.00;102481.13;5078525;28;46503;-74
2023/01/03 11:24:00;;;;;;;;;11.00;11.00;;;;;9.98;100.00;102505.56;5070965;28;45268;-75
2023/01/03 11:26:47;;;;;;;;;10.33;10.33;;;;;9.95;100.00;102492.53;5072886;28;45403;-74
2023/01/03 11:29:50;;;;;;;;;12.33;10.00;;;;;9.94;100.00;102501.47;5082362;28;45450;-75
2023/01/03 11:32:27;;;;;;;;;13.67;12.00;;;;;9.94;100.00;102490.84;5063755;28;47140;-75
2023/01/03 11:35:24;;;;;;;;;10.67;9.67;;;;;9.93;100.00;102496.28;5081147;28;45520;-74
2023/01/03 11:38:27;;;;;;;;;11.00;9.33;;;;;9.94;100.00;102492.66;5047722;28;45325;-75
2023/01/03 11:40:55;;;;;;;;;13.33;10.67;;;;;9.94;100.00;102498.81;5052649;28;47305;-75
2023/01/03 11:43:40;;;;;;;;;10.67;10.67;;;;;9.93;100.00;102497.13;5081804;28;46524;-75
2023/01/03 11:46:30;;;;;;;;;13.67;11.33;;;;;9.85;100.00;102491.63;5081965;28;45318;-75
2023/01/03 11:49:26;;;;;;;;;14.00;11.67;;;;;9.90;100.00;102494.72;5070276;28;45343;-76
2023/01/03 11:52:06;;;;;;;;;10.00;10.00;;;;;9.93;100.00;102499.78;5081813;28;45437;-74
2023/01/03 11:55:02;;;;;;;;;9.33;8.33;;;;;9.96;100.00;102496.88;5081405;28;46175;-75
2023/01/03 11:57:54;;;;;;;;;10.00;9.67;;;;;9.96;100.00;102496.03;5063927;28;45699;-74
2023/01/03 12:00:29;;;;;;;;;13.67;12.33;;;;;9.88;100.00;102477.22;5063944;28;45383;-75
2023/01/03 12:03:02;;;;;;;;;11.33;11.33;;;;;9.83;100.00;102470.50;5081767;28;45545;-73
2023/01/03 12:05:40;;;;;;;;;12.00;11.33;;;;;9.93;100.00;102483.00;5063462;28;46886;-74
2023/01/03 12:08:07;;;;;;;;;14.00;12.67;;;;;10.10;100.00;102501.06;5072621;27;45521;-74
2023/01/03 12:10:53;;;;;;;;;11.67;10.00;;;;;10.09;100.00;102486.06;5084739;27;45390;-75
2023/01/03 12:13:49;;;;;;;;;14.67;13.67;;;;;10.14;100.00;102484.88;5079231;28;45359;-75
2023/01/03 12:16:22;;;;;;;;;19.67;18.00;;;;;10.04;100.00;102468.81;5080611;28;46214;-75
2023/01/03 12:19:05;;;;;;;;;12.67;9.67;;;;;10.11;100.00;102470.00;5079489;28;45697;-76
2023/01/03 12:21:39;;;;;;;;;15.33;15.33;;;;;10.13;100.00;102468.06;5062368;28;45381;-76